sensor_id;sensor_type;location;lat;lon;timestamp;P1;durP1;ratioP1;P2;durP2;ratioP2
31384;SDS011;18016;49.788;8.742;2023-02-28T00:00:50;3.38;;;2.75;;
31384;SDS011;18016;49.788;8.742;2023-02-28T00:03:15;5.75;;;3.13;;
31384;SDS011;18016;49.788;8.742;2023-02-28T00:05:40;4.88;;;3.00;;
31384;SDS011;18016;49.788;8.742;2023-02-28T00:08:06;4.53;;;3.10;;
31384;SDS011;18016;49.788;8.742;2023-02-28T00:10:31;7.53;;;3.13;;
31384;SDS011;18016;49.788;8.742;2023-02-28T00:13:04;6.90;;;3.08;;
31384;SDS011;18016;49.788;8.742;2023-02-28T00:15:29;4.75;;;3.40;;
31384;SDS011;18016;49.788;8.742;2023-02-28T00:17:55;4.10;;;3.22;;
31384;SDS011;18016;49.788;8.742;2023-02-28T00:20:20;5.90;;;3.13;;
31384;SDS011;18016;49.788;8.742;2023-02-28T00:22:46;4.78;;;3.10;;
31384;SDS011;18016;49.788;8.742;2023-02-28T00:25:12;3.65;;;3.28;;
31384;SDS011;18016;49.788;8.742;2023-02-28T00:27:39;5.60;;;3.33;;
31384;SDS011;18016;49.788;8.742;2023-02-28T00:30:05;4.88;;;2.92;;
31384;SDS011;18016;49.788;8.742;2023-02-28T00:32:31;5.90;;;3.35;;
31384;SDS011;18016;49.788;8.742;2023-02-28T00:34:56;5.32;;;2.97;;
31384;SDS011;18016;49.788;8.742;2023-02-28T00:37:21;3.75;;;3.03;;
31384;SDS011;18016;49.788;8.742;2023-02-28T00:39:46;4.32;;;3.22;;
31384;SDS011;18016;49.788;8.742;2023-02-28T00:42:12;5.87;;;3.13;;
31384;SDS011;18016;49.788;8.742;2023-02-28T00:44:37;4.18;;;3.03;;
31384;SDS011;18016;49.788;8.742;2023-02-28T00:47:02;4.63;;;3.00;;
31384;SDS011;18016;49.788;8.742;2023-02-28T00:49:27;4.93;;;3.08;;
31384;SDS011;18016;49.788;8.742;2023-02-28T00:51:53;3.22;;;2.92;;
31384;SDS011;18016;49.788;8.742;2023-02-28T00:54:19;3.75;;;3.05;;
31384;SDS011;18016;49.788;8.742;2023-02-28T00:56:44;4.57;;;2.95;;
31384;SDS011;18016;49.788;8.742;2023-02-28T00:59:10;6.32;;;3.78;;
31384;SDS011;18016;49.788;8.742;2023-02-28T01:01:36;6.68;;;3.30;;
31384;SDS011;18016;49.788;8.742;2023-02-28T01:04:01;5.40;;;3.20;;
31384;SDS011;18016;49.788;8.742;2023-02-28T01:06:26;4.45;;;3.10;;
31384;SDS011;18016;49.788;8.742;2023-02-28T01:08:51;4.53;;;3.60;;
31384;SDS011;18016;49.788;8.742;2023-02-28T01:11:17;3.83;;;3.00;;
31384;SDS011;18016;49.788;8.742;2023-02-28T01:13:43;4.78;;;3.47;;
31384;SDS011;18016;49.788;8.742;2023-02-28T01:16:08;3.05;;;2.75;;
31384;SDS011;18016;49.788;8.742;2023-02-28T01:18:34;6.63;;;3.17;;
31384;SDS011;18016;49.788;8.742;2023-02-28T01:21:06;7.50;;;3.85;;
31384;SDS011;18016;49.788;8.742;2023-02-28T01:23:32;5.93;;;3.05;;
31384;SDS011;18016;49.788;8.742;2023-02-28T01:25:59;4.45;;;3.28;;
31384;SDS011;18016;49.788;8.742;2023-02-28T01:28:27;5.13;;;3.22;;
31384;SDS011;18016;49.788;8.742;2023-02-28T01:30:54;6.50;;;3.35;;
31384;SDS011;18016;49.788;8.742;2023-02-28T01:33:19;4.93;;;3.43;;
31384;SDS011;18016;49.788;8.742;2023-02-28T01:35:45;4.90;;;3.30;;
31384;SDS011;18016;49.788;8.742;2023-02-28T01:38:10;5.10;;;3.05;;
31384;SDS011;18016;49.788;8.742;2023-02-28T01:40:35;4.13;;;2.90;;
31384;SDS011;18016;49.788;8.742;2023-02-28T01:43:00;7.50;;;3.27;;
31384;SDS011;18016;49.788;8.742;2023-02-28T01:45:26;3.80;;;3.23;;
31384;SDS011;18016;49.788;8.742;2023-02-28T01:47:54;5.13;;;3.40;;
31384;SDS011;18016;49.788;8.742;2023-02-28T01:50:21;5.35;;;3.35;;
31384;SDS011;18016;49.788;8.742;2023-02-28T01:52:47;9.32;;;3.70;;
31384;SDS011;18016;49.788;8.742;2023-02-28T01:55:13;6.70;;;3.60;;
31384;SDS011;18016;49.788;8.742;2023-02-28T01:57:43;4.45;;;3.00;;
31384;SDS011;18016;49.788;8.742;2023-02-28T02:00:12;5.15;;;3.40;;
31384;SDS011;18016;49.788;8.742;2023-02-28T02:02:39;5.28;;;3.20;;
31384;SDS011;18016;49.788;8.742;2023-02-28T02:05:38;5.38;;;3.53;;
31384;SDS011;18016;49.788;8.742;2023-02-28T02:08:04;4.40;;;3.30;;
31384;SDS011;18016;49.788;8.742;2023-02-28T02:10:34;5.28;;;3.13;;
31384;SDS011;18016;49.788;8.742;2023-02-28T02:13:20;4.72;;;3.45;;
31384;SDS011;18016;49.788;8.742;2023-02-28T02:24:38;6.80;;;3.40;;
31384;SDS011;18016;49.788;8.742;2023-02-28T02:29:01;5.22;;;3.13;;
31384;SDS011;18016;49.788;8.742;2023-02-28T02:39:29;11.88;;;8.05;;
31384;SDS011;18016;49.788;8.742;2023-02-28T02:41:56;8.95;;;6.35;;
31384;SDS011;18016;49.788;8.742;2023-02-28T02:44:27;11.35;;;6.22;;
31384;SDS011;18016;49.788;8.742;2023-02-28T02:46:57;7.95;;;4.80;;
31384;SDS011;18016;49.788;8.742;2023-02-28T02:49:25;9.60;;;4.53;;
31384;SDS011;18016;49.788;8.742;2023-02-28T02:51:53;7.10;;;4.10;;
31384;SDS011;18016;49.788;8.742;2023-02-28T02:54:32;7.07;;;4.50;;
31384;SDS011;18016;49.788;8.742;2023-02-28T02:56:59;5.75;;;3.40;;
31384;SDS011;18016;49.788;8.742;2023-02-28T02:59:25;4.05;;;3.25;;
31384;SDS011;18016;49.788;8.742;2023-02-28T03:01:54;8.15;;;3.60;;
31384;SDS011;18016;49.788;8.742;2023-02-28T03:04:21;7.72;;;3.35;;
31384;SDS011;18016;49.788;8.742;2023-02-28T03:06:47;8.32;;;3.47;;
31384;SDS011;18016;49.788;8.742;2023-02-28T03:09:12;6.82;;;3.25;;
31384;SDS011;18016;49.788;8.742;2023-02-28T03:11:37;7.70;;;3.75;;
31384;SDS011;18016;49.788;8.742;2023-02-28T03:14:22;5.20;;;3.33;;
31384;SDS011;18016;49.788;8.742;2023-02-28T03:22:08;8.07;;;3.83;;
31384;SDS011;18016;49.788;8.742;2023-02-28T03:24:40;4.00;;;3.10;;
31384;SDS011;18016;49.788;8.742;2023-02-28T03:27:09;8.27;;;3.65;;
31384;SDS011;18016;49.788;8.742;2023-02-28T03:29:41;7.47;;;3.13;;
31384;SDS011;18016;49.788;8.742;2023-02-28T03:32:13;3.92;;;3.20;;
31384;SDS011;18016;49.788;8.742;2023-02-28T03:34:51;6.70;;;3.47;;
31384;SDS011;18016;49.788;8.742;2023-02-28T03:37:21;6.25;;;3.28;;
31384;SDS011;18016;49.788;8.742;2023-02-28T03:39:49;5.30;;;3.50;;
31384;SDS011;18016;49.788;8.742;2023-02-28T03:42:20;5.13;;;3.28;;
31384;SDS011;18016;49.788;8.742;2023-02-28T03:44:57;4.55;;;3.45;;
31384;SDS011;18016;49.788;8.742;2023-02-28T03:47:24;3.78;;;3.38;;
31384;SDS011;18016;49.788;8.742;2023-02-28T03:49:56;8.15;;;4.47;;
31384;SDS011;18016;49.788;8.742;2023-02-28T03:52:23;9.77;;;4.60;;
31384;SDS011;18016;49.788;8.742;2023-02-28T03:54:51;8.70;;;4.28;;
31384;SDS011;18016;49.788;8.742;2023-02-28T04:00:08;7.70;;;4.00;;
31384;SDS011;18016;49.788;8.742;2023-02-28T04:02:35;5.93;;;3.45;;
31384;SDS011;18016;49.788;8.742;2023-02-28T04:05:00;6.97;;;4.03;;
31384;SDS011;18016;49.788;8.742;2023-02-28T04:07:28;5.40;;;3.95;;
31384;SDS011;18016;49.788;8.742;2023-02-28T04:09:54;3.90;;;3.47;;
31384;SDS011;18016;49.788;8.742;2023-02-28T04:12:19;5.67;;;4.00;;
31384;SDS011;18016;49.788;8.742;2023-02-28T04:14:44;5.13;;;3.75;;
31384;SDS011;18016;49.788;8.742;2023-02-28T04:17:09;4.72;;;3.63;;
31384;SDS011;18016;49.788;8.742;2023-02-28T04:19:34;7.47;;;3.87;;
31384;SDS011;18016;49.788;8.742;2023-02-28T04:21:59;4.67;;;3.43;;
31384;SDS011;18016;49.788;8.742;2023-02-28T04:24:25;6.87;;;3.50;;
31384;SDS011;18016;49.788;8.742;2023-02-28T04:26:52;6.10;;;3.80;;
31384;SDS011;18016;49.788;8.742;2023-02-28T04:29:18;6.03;;;3.50;;
31384;SDS011;18016;49.788;8.742;2023-02-28T04:31:44;5.82;;;3.42;;
31384;SDS011;18016;49.788;8.742;2023-02-28T04:34:09;4.43;;;3.35;;
31384;SDS011;18016;49.788;8.742;2023-02-28T04:36:34;4.93;;;3.42;;
31384;SDS011;18016;49.788;8.742;2023-02-28T04:38:59;5.07;;;3.50;;
31384;SDS011;18016;49.788;8.742;2023-02-28T04:41:24;8.80;;;3.90;;
31384;SDS011;18016;49.788;8.742;2023-02-28T04:43:50;6.45;;;3.88;;
31384;SDS011;18016;49.788;8.742;2023-02-28T04:46:16;6.07;;;3.80;;
31384;SDS011;18016;49.788;8.742;2023-02-28T04:48:42;4.30;;;3.90;;
31384;SDS011;18016;49.788;8.742;2023-02-28T04:51:09;6.00;;;3.70;;
31384;SDS011;18016;49.788;8.742;2023-02-28T04:53:36;5.22;;;3.85;;
31384;SDS011;18016;49.788;8.742;2023-02-28T04:56:02;5.43;;;4.28;;
31384;SDS011;18016;49.788;8.742;2023-02-28T04:58:27;6.57;;;3.50;;
31384;SDS011;18016;49.788;8.742;2023-02-28T05:00:53;9.20;;;3.88;;
31384;SDS011;18016;49.788;8.742;2023-02-28T05:03:19;6.20;;;3.85;;
31384;SDS011;18016;49.788;8.742;2023-02-28T05:05:45;5.50;;;4.20;;
31384;SDS011;18016;49.788;8.742;2023-02-28T05:08:10;5.38;;;4.03;;
31384;SDS011;18016;49.788;8.742;2023-02-28T05:10:36;19.73;;;6.87;;
31384;SDS011;18016;49.788;8.742;2023-02-28T05:13:01;35.10;;;12.35;;
31384;SDS011;18016;49.788;8.742;2023-02-28T05:15:27;21.57;;;6.60;;
31384;SDS011;18016;49.788;8.742;2023-02-28T05:17:53;13.20;;;5.65;;
31384;SDS011;18016;49.788;8.742;2023-02-28T05:20:18;9.07;;;5.00;;
31384;SDS011;18016;49.788;8.742;2023-02-28T05:22:43;9.82;;;4.85;;
31384;SDS011;18016;49.788;8.742;2023-02-28T05:25:10;8.63;;;4.47;;
31384;SDS011;18016;49.788;8.742;2023-02-28T05:27:37;6.95;;;4.13;;
31384;SDS011;18016;49.788;8.742;2023-02-28T05:30:02;7.20;;;4.32;;
31384;SDS011;18016;49.788;8.742;2023-02-28T05:32:29;5.93;;;4.38;;
31384;SDS011;18016;49.788;8.742;2023-02-28T05:34:54;13.67;;;4.80;;
31384;SDS011;18016;49.788;8.742;2023-02-28T05:37:19;5.85;;;4.30;;
31384;SDS011;18016;49.788;8.742;2023-02-28T05:39:44;9.07;;;4.53;;
31384;SDS011;18016;49.788;8.742;2023-02-28T05:42:09;16.17;;;5.30;;
31384;SDS011;18016;49.788;8.742;2023-02-28T05:44:35;6.83;;;4.30;;
31384;SDS011;18016;49.788;8.742;2023-02-28T05:47:00;8.27;;;4.82;;
31384;SDS011;18016;49.788;8.742;2023-02-28T05:49:25;7.43;;;4.63;;
31384;SDS011;18016;49.788;8.742;2023-02-28T05:51:51;8.70;;;5.13;;
31384;SDS011;18016;49.788;8.742;2023-02-28T05:54:16;10.40;;;5.23;;
31384;SDS011;18016;49.788;8.742;2023-02-28T05:56:41;9.47;;;4.43;;
31384;SDS011;18016;49.788;8.742;2023-02-28T05:59:09;8.80;;;4.57;;
31384;SDS011;18016;49.788;8.742;2023-02-28T06:01:41;9.40;;;5.70;;
31384;SDS011;18016;49.788;8.742;2023-02-28T06:04:07;9.10;;;4.95;;
31384;SDS011;18016;49.788;8.742;2023-02-28T06:06:33;9.30;;;5.22;;
31384;SDS011;18016;49.788;8.742;2023-02-28T06:09:02;9.30;;;5.25;;
31384;SDS011;18016;49.788;8.742;2023-02-28T06:11:27;8.90;;;5.00;;
31384;SDS011;18016;49.788;8.742;2023-02-28T06:13:56;8.45;;;4.80;;
31384;SDS011;18016;49.788;8.742;2023-02-28T06:16:21;10.95;;;5.00;;
31384;SDS011;18016;49.788;8.742;2023-02-28T06:18:47;9.23;;;4.95;;
31384;SDS011;18016;49.788;8.742;2023-02-28T06:21:12;11.83;;;5.20;;
31384;SDS011;18016;49.788;8.742;2023-02-28T06:23:37;6.80;;;4.70;;
31384;SDS011;18016;49.788;8.742;2023-02-28T06:26:02;9.50;;;5.57;;
31384;SDS011;18016;49.788;8.742;2023-02-28T06:28:28;6.93;;;4.63;;
31384;SDS011;18016;49.788;8.742;2023-02-28T06:30:53;8.70;;;4.85;;
31384;SDS011;18016;49.788;8.742;2023-02-28T06:33:18;7.93;;;4.93;;
31384;SDS011;18016;49.788;8.742;2023-02-28T06:35:44;6.90;;;4.77;;
31384;SDS011;18016;49.788;8.742;2023-02-28T06:38:09;8.18;;;5.45;;
31384;SDS011;18016;49.788;8.742;2023-02-28T06:40:35;8.95;;;5.05;;
31384;SDS011;18016;49.788;8.742;2023-02-28T06:43:00;9.93;;;5.20;;
31384;SDS011;18016;49.788;8.742;2023-02-28T06:45:26;10.60;;;4.88;;
31384;SDS011;18016;49.788;8.742;2023-02-28T06:47:51;7.25;;;4.90;;
31384;SDS011;18016;49.788;8.742;2023-02-28T06:50:17;7.93;;;5.00;;
31384;SDS011;18016;49.788;8.742;2023-02-28T06:52:45;8.98;;;4.90;;
31384;SDS011;18016;49.788;8.742;2023-02-28T06:55:10;7.90;;;5.22;;
31384;SDS011;18016;49.788;8.742;2023-02-28T06:57:36;10.98;;;4.88;;
31384;SDS011;18016;49.788;8.742;2023-02-28T07:00:04;8.15;;;4.72;;
31384;SDS011;18016;49.788;8.742;2023-02-28T07:02:29;8.25;;;5.00;;
31384;SDS011;18016;49.788;8.742;2023-02-28T07:04:56;9.43;;;5.00;;
31384;SDS011;18016;49.788;8.742;2023-02-28T07:07:21;6.70;;;4.50;;
31384;SDS011;18016;49.788;8.742;2023-02-28T07:09:46;11.67;;;4.43;;
31384;SDS011;18016;49.788;8.742;2023-02-28T07:12:11;9.27;;;4.17;;
31384;SDS011;18016;49.788;8.742;2023-02-28T07:14:37;6.47;;;4.75;;
31384;SDS011;18016;49.788;8.742;2023-02-28T07:17:02;6.40;;;3.90;;
31384;SDS011;18016;49.788;8.742;2023-02-28T07:19:27;8.47;;;4.70;;
31384;SDS011;18016;49.788;8.742;2023-02-28T07:21:53;6.10;;;3.90;;
31384;SDS011;18016;49.788;8.742;2023-02-28T07:24:18;6.95;;;4.53;;
31384;SDS011;18016;49.788;8.742;2023-02-28T07:26:43;5.80;;;3.72;;
31384;SDS011;18016;49.788;8.742;2023-02-28T07:29:08;8.13;;;3.87;;
31384;SDS011;18016;49.788;8.742;2023-02-28T07:31:34;6.00;;;3.75;;
31384;SDS011;18016;49.788;8.742;2023-02-28T07:33:59;4.87;;;3.73;;
31384;SDS011;18016;49.788;8.742;2023-02-28T07:36:24;6.80;;;4.10;;
31384;SDS011;18016;49.788;8.742;2023-02-28T07:38:49;5.53;;;3.87;;
31384;SDS011;18016;49.788;8.742;2023-02-28T07:41:19;6.43;;;4.07;;
31384;SDS011;18016;49.788;8.742;2023-02-28T07:43:45;5.82;;;4.15;;
31384;SDS011;18016;49.788;8.742;2023-02-28T07:46:11;5.85;;;3.97;;
31384;SDS011;18016;49.788;8.742;2023-02-28T07:48:36;5.75;;;3.78;;
31384;SDS011;18016;49.788;8.742;2023-02-28T07:51:02;5.50;;;4.00;;
31384;SDS011;18016;49.788;8.742;2023-02-28T07:53:28;5.30;;;3.78;;
31384;SDS011;18016;49.788;8.742;2023-02-28T07:55:57;5.60;;;3.47;;
31384;SDS011;18016;49.788;8.742;2023-02-28T07:58:22;5.78;;;3.92;;
31384;SDS011;18016;49.788;8.742;2023-02-28T08:00:47;6.97;;;3.60;;
31384;SDS011;18016;49.788;8.742;2023-02-28T08:03:13;4.03;;;3.63;;
31384;SDS011;18016;49.788;8.742;2023-02-28T08:05:39;6.10;;;3.92;;
31384;SDS011;18016;49.788;8.742;2023-02-28T08:08:04;5.30;;;3.35;;
31384;SDS011;18016;49.788;8.742;2023-02-28T08:10:30;6.18;;;3.70;;
31384;SDS011;18016;49.788;8.742;2023-02-28T08:12:55;5.63;;;4.07;;
31384;SDS011;18016;49.788;8.742;2023-02-28T08:15:20;3.97;;;3.43;;
31384;SDS011;18016;49.788;8.742;2023-02-28T08:17:45;6.73;;;3.30;;
31384;SDS011;18016;49.788;8.742;2023-02-28T08:20:10;7.63;;;3.50;;
31384;SDS011;18016;49.788;8.742;2023-02-28T08:22:35;4.57;;;3.28;;
31384;SDS011;18016;49.788;8.742;2023-02-28T08:25:01;7.30;;;3.70;;
31384;SDS011;18016;49.788;8.742;2023-02-28T08:27:26;5.60;;;3.80;;
31384;SDS011;18016;49.788;8.742;2023-02-28T08:29:51;5.67;;;3.17;;
31384;SDS011;18016;49.788;8.742;2023-02-28T08:32:16;6.03;;;4.07;;
31384;SDS011;18016;49.788;8.742;2023-02-28T08:34:41;7.03;;;3.90;;
31384;SDS011;18016;49.788;8.742;2023-02-28T08:37:06;5.20;;;3.92;;
31384;SDS011;18016;49.788;8.742;2023-02-28T08:39:35;6.55;;;4.07;;
31384;SDS011;18016;49.788;8.742;2023-02-28T08:42:01;11.05;;;3.88;;
31384;SDS011;18016;49.788;8.742;2023-02-28T08:44:26;8.35;;;4.32;;
31384;SDS011;18016;49.788;8.742;2023-02-28T08:46:52;6.03;;;3.85;;
31384;SDS011;18016;49.788;8.742;2023-02-28T08:49:17;7.47;;;4.27;;
31384;SDS011;18016;49.788;8.742;2023-02-28T08:51:43;9.88;;;4.53;;
31384;SDS011;18016;49.788;8.742;2023-02-28T08:54:08;9.40;;;4.80;;
31384;SDS011;18016;49.788;8.742;2023-02-28T08:56:34;6.75;;;4.45;;
31384;SDS011;18016;49.788;8.742;2023-02-28T08:58:59;7.57;;;4.68;;
31384;SDS011;18016;49.788;8.742;2023-02-28T09:01:25;8.53;;;4.87;;
31384;SDS011;18016;49.788;8.742;2023-02-28T09:03:52;8.38;;;5.35;;
31384;SDS011;18016;49.788;8.742;2023-02-28T09:06:18;7.18;;;5.07;;
31384;SDS011;18016;49.788;8.742;2023-02-28T09:08:43;8.30;;;5.57;;
31384;SDS011;18016;49.788;8.742;2023-02-28T09:11:09;10.07;;;5.37;;
31384;SDS011;18016;49.788;8.742;2023-02-28T09:13:34;8.38;;;5.35;;
31384;SDS011;18016;49.788;8.742;2023-02-28T09:16:00;8.60;;;5.63;;
31384;SDS011;18016;49.788;8.742;2023-02-28T09:18:26;8.00;;;5.30;;
31384;SDS011;18016;49.788;8.742;2023-02-28T09:20:51;9.57;;;5.95;;
31384;SDS011;18016;49.788;8.742;2023-02-28T09:23:17;6.82;;;5.40;;
31384;SDS011;18016;49.788;8.742;2023-02-28T09:28:11;12.70;;;5.55;;
31384;SDS011;18016;49.788;8.742;2023-02-28T09:30:37;9.70;;;5.43;;
31384;SDS011;18016;49.788;8.742;2023-02-28T09:33:02;9.33;;;5.77;;
31384;SDS011;18016;49.788;8.742;2023-02-28T09:35:27;11.95;;;5.78;;
31384;SDS011;18016;49.788;8.742;2023-02-28T09:37:52;8.13;;;5.57;;
31384;SDS011;18016;49.788;8.742;2023-02-28T09:40:22;7.18;;;5.30;;
31384;SDS011;18016;49.788;8.742;2023-02-28T09:42:49;8.65;;;5.47;;
31384;SDS011;18016;49.788;8.742;2023-02-28T09:48:10;8.52;;;5.72;;
31384;SDS011;18016;49.788;8.742;2023-02-28T09:50:48;7.88;;;5.82;;
31384;SDS011;18016;49.788;8.742;2023-02-28T09:55:51;7.85;;;5.10;;
31384;SDS011;18016;49.788;8.742;2023-02-28T09:58:23;7.60;;;4.93;;
31384;SDS011;18016;49.788;8.742;2023-02-28T10:00:56;8.65;;;5.82;;
31384;SDS011;18016;49.788;8.742;2023-02-28T10:06:03;7.78;;;5.30;;
31384;SDS011;18016;49.788;8.742;2023-02-28T10:08:33;10.35;;;5.93;;
31384;SDS011;18016;49.788;8.742;2023-02-28T10:11:01;8.65;;;5.80;;
31384;SDS011;18016;49.788;8.742;2023-02-28T10:13:36;7.55;;;4.97;;
31384;SDS011;18016;49.788;8.742;2023-02-28T10:19:03;8.80;;;4.93;;
31384;SDS011;18016;49.788;8.742;2023-02-28T10:21:38;6.63;;;5.13;;
31384;SDS011;18016;49.788;8.742;2023-02-28T10:24:15;8.15;;;4.45;;
31384;SDS011;18016;49.788;8.742;2023-02-28T10:26:44;12.02;;;5.05;;
31384;SDS011;18016;49.788;8.742;2023-02-28T10:29:10;7.70;;;5.30;;
31384;SDS011;18016;49.788;8.742;2023-02-28T10:31:35;6.95;;;5.32;;
31384;SDS011;18016;49.788;8.742;2023-02-28T10:34:01;7.63;;;5.38;;
31384;SDS011;18016;49.788;8.742;2023-02-28T10:36:28;8.00;;;5.55;;
31384;SDS011;18016;49.788;8.742;2023-02-28T10:38:53;8.25;;;5.45;;
31384;SDS011;18016;49.788;8.742;2023-02-28T10:43:50;7.55;;;5.18;;
31384;SDS011;18016;49.788;8.742;2023-02-28T10:46:16;7.30;;;5.03;;
31384;SDS011;18016;49.788;8.742;2023-02-28T10:49:06;7.05;;;5.57;;
31384;SDS011;18016;49.788;8.742;2023-02-28T10:51:37;6.85;;;5.70;;
31384;SDS011;18016;49.788;8.742;2023-02-28T10:54:03;8.05;;;5.35;;
31384;SDS011;18016;49.788;8.742;2023-02-28T10:56:28;8.68;;;5.85;;
31384;SDS011;18016;49.788;8.742;2023-02-28T11:03:56;8.80;;;5.75;;
31384;SDS011;18016;49.788;8.742;2023-02-28T11:06:31;8.30;;;6.13;;
31384;SDS011;18016;49.788;8.742;2023-02-28T11:09:01;9.43;;;6.03;;
31384;SDS011;18016;49.788;8.742;2023-02-28T11:11:28;10.90;;;6.03;;
31384;SDS011;18016;49.788;8.742;2023-02-28T11:13:55;10.52;;;6.03;;
31384;SDS011;18016;49.788;8.742;2023-02-28T11:16:21;10.93;;;6.40;;
31384;SDS011;18016;49.788;8.742;2023-02-28T11:18:48;10.13;;;6.00;;
31384;SDS011;18016;49.788;8.742;2023-02-28T11:21:33;7.03;;;5.70;;
31384;SDS011;18016;49.788;8.742;2023-02-28T11:24:22;9.85;;;6.50;;
31384;SDS011;18016;49.788;8.742;2023-02-28T11:26:47;9.52;;;6.00;;
31384;SDS011;18016;49.788;8.742;2023-02-28T11:29:20;7.95;;;6.28;;
31384;SDS011;18016;49.788;8.742;2023-02-28T11:32:20;7.00;;;5.38;;
31384;SDS011;18016;49.788;8.742;2023-02-28T11:34:37;13.48;;;6.22;;
31384;SDS011;18016;49.788;8.742;2023-02-28T11:37:03;10.27;;;5.97;;
31384;SDS011;18016;49.788;8.742;2023-02-28T11:39:30;10.75;;;6.38;;
31384;SDS011;18016;49.788;8.742;2023-02-28T11:42:18;8.48;;;6.10;;
31384;SDS011;18016;49.788;8.742;2023-02-28T11:44:50;9.27;;;5.80;;
31384;SDS011;18016;49.788;8.742;2023-02-28T11:49:49;10.80;;;6.65;;
31384;SDS011;18016;49.788;8.742;2023-02-28T11:52:30;8.15;;;6.20;;
31384;SDS011;18016;49.788;8.742;2023-02-28T11:55:06;10.35;;;6.30;;
31384;SDS011;18016;49.788;8.742;2023-02-28T12:05:38;11.40;;;7.32;;
31384;SDS011;18016;49.788;8.742;2023-02-28T12:18:16;9.00;;;6.53;;
31384;SDS011;18016;49.788;8.742;2023-02-28T12:20:46;9.68;;;7.15;;
31384;SDS011;18016;49.788;8.742;2023-02-28T12:28:27;8.57;;;6.75;;
31384;SDS011;18016;49.788;8.742;2023-02-28T12:30:58;10.40;;;6.95;;
31384;SDS011;18016;49.788;8.742;2023-02-28T12:33:26;9.20;;;6.97;;
31384;SDS011;18016;49.788;8.742;2023-02-28T12:35:57;10.07;;;6.95;;
31384;SDS011;18016;49.788;8.742;2023-02-28T12:38:26;12.65;;;7.22;;
31384;SDS011;18016;49.788;8.742;2023-02-28T12:40:53;10.43;;;7.00;;
31384;SDS011;18016;49.788;8.742;2023-02-28T12:43:19;9.70;;;7.15;;
31384;SDS011;18016;49.788;8.742;2023-02-28T12:45:48;11.10;;;7.28;;
31384;SDS011;18016;49.788;8.742;2023-02-28T12:48:16;11.15;;;7.43;;
31384;SDS011;18016;49.788;8.742;2023-02-28T12:50:44;8.98;;;6.95;;
31384;SDS011;18016;49.788;8.742;2023-02-28T12:53:12;11.73;;;6.88;;
31384;SDS011;18016;49.788;8.742;2023-02-28T12:55:47;9.27;;;7.03;;
31384;SDS011;18016;49.788;8.742;2023-02-28T12:58:15;11.88;;;7.00;;
31384;SDS011;18016;49.788;8.742;2023-02-28T13:01:30;11.32;;;7.65;;
31384;SDS011;18016;49.788;8.742;2023-02-28T13:11:01;10.10;;;7.72;;
31384;SDS011;18016;49.788;8.742;2023-02-28T13:13:28;10.25;;;6.97;;
31384;SDS011;18016;49.788;8.742;2023-02-28T13:16:03;11.05;;;7.32;;
31384;SDS011;18016;49.788;8.742;2023-02-28T13:18:34;10.13;;;6.97;;
31384;SDS011;18016;49.788;8.742;2023-02-28T13:21:02;11.57;;;7.57;;
31384;SDS011;18016;49.788;8.742;2023-02-28T13:26:17;11.18;;;7.47;;
31384;SDS011;18016;49.788;8.742;2023-02-28T13:31:13;11.05;;;7.57;;
31384;SDS011;18016;49.788;8.742;2023-02-28T13:46:24;10.57;;;7.43;;
31384;SDS011;18016;49.788;8.742;2023-02-28T13:48:50;13.10;;;7.03;;
31384;SDS011;18016;49.788;8.742;2023-02-28T13:51:37;9.32;;;7.18;;
31384;SDS011;18016;49.788;8.742;2023-02-28T13:54:40;10.55;;;7.68;;
31384;SDS011;18016;49.788;8.742;2023-02-28T13:57:03;16.55;;;7.90;;
31384;SDS011;18016;49.788;8.742;2023-02-28T14:04:53;10.48;;;7.28;;
31384;SDS011;18016;49.788;8.742;2023-02-28T14:07:22;10.67;;;6.93;;
31384;SDS011;18016;49.788;8.742;2023-02-28T14:09:59;9.93;;;7.30;;
31384;SDS011;18016;49.788;8.742;2023-02-28T14:15:27;11.27;;;7.93;;
31384;SDS011;18016;49.788;8.742;2023-02-28T14:17:54;11.00;;;7.55;;
31384;SDS011;18016;49.788;8.742;2023-02-28T14:20:20;9.85;;;7.22;;
31384;SDS011;18016;49.788;8.742;2023-02-28T14:22:50;10.40;;;8.10;;
31384;SDS011;18016;49.788;8.742;2023-02-28T14:25:18;11.07;;;7.78;;
31384;SDS011;18016;49.788;8.742;2023-02-28T14:27:53;10.55;;;7.13;;
31384;SDS011;18016;49.788;8.742;2023-02-28T14:35:43;8.88;;;6.07;;
31384;SDS011;18016;49.788;8.742;2023-02-28T14:38:18;10.40;;;7.00;;
31384;SDS011;18016;49.788;8.742;2023-02-28T14:40:46;10.25;;;6.63;;
31384;SDS011;18016;49.788;8.742;2023-02-28T14:43:20;10.27;;;7.05;;
31384;SDS011;18016;49.788;8.742;2023-02-28T14:45:49;9.38;;;6.80;;
31384;SDS011;18016;49.788;8.742;2023-02-28T14:48:15;9.13;;;7.00;;
31384;SDS011;18016;49.788;8.742;2023-02-28T14:50:40;10.05;;;7.20;;
31384;SDS011;18016;49.788;8.742;2023-02-28T14:53:15;9.95;;;6.47;;
31384;SDS011;18016;49.788;8.742;2023-02-28T14:55:44;9.40;;;6.78;;
31384;SDS011;18016;49.788;8.742;2023-02-28T14:58:18;10.18;;;6.88;;
31384;SDS011;18016;49.788;8.742;2023-02-28T15:03:18;11.68;;;7.32;;
31384;SDS011;18016;49.788;8.742;2023-02-28T15:05:50;10.68;;;6.95;;
31384;SDS011;18016;49.788;8.742;2023-02-28T15:08:16;10.45;;;7.07;;
31384;SDS011;18016;49.788;8.742;2023-02-28T15:10:45;9.57;;;7.28;;
31384;SDS011;18016;49.788;8.742;2023-02-28T15:13:15;7.43;;;6.28;;
31384;SDS011;18016;49.788;8.742;2023-02-28T15:16:03;10.32;;;6.65;;
31384;SDS011;18016;49.788;8.742;2023-02-28T15:20:54;9.40;;;7.10;;
31384;SDS011;18016;49.788;8.742;2023-02-28T15:23:20;9.93;;;7.28;;
31384;SDS011;18016;49.788;8.742;2023-02-28T15:25:46;9.52;;;6.93;;
31384;SDS011;18016;49.788;8.742;2023-02-28T15:28:13;11.57;;;7.20;;
31384;SDS011;18016;49.788;8.742;2023-02-28T15:30:39;10.85;;;7.78;;
31384;SDS011;18016;49.788;8.742;2023-02-28T15:35:36;9.65;;;6.97;;
31384;SDS011;18016;49.788;8.742;2023-02-28T15:38:03;13.15;;;7.28;;
31384;SDS011;18016;49.788;8.742;2023-02-28T15:40:41;9.93;;;6.80;;
31384;SDS011;18016;49.788;8.742;2023-02-28T15:43:07;10.68;;;7.68;;
31384;SDS011;18016;49.788;8.742;2023-02-28T15:45:46;10.43;;;6.80;;
31384;SDS011;18016;49.788;8.742;2023-02-28T15:50:43;9.82;;;6.97;;
31384;SDS011;18016;49.788;8.742;2023-02-28T15:53:12;11.00;;;7.30;;
31384;SDS011;18016;49.788;8.742;2023-02-28T15:55:38;13.30;;;7.22;;
31384;SDS011;18016;49.788;8.742;2023-02-28T15:58:03;11.65;;;6.90;;
31384;SDS011;18016;49.788;8.742;2023-02-28T16:00:30;9.63;;;6.60;;
31384;SDS011;18016;49.788;8.742;2023-02-28T16:02:57;10.13;;;7.40;;
31384;SDS011;18016;49.788;8.742;2023-02-28T16:05:27;11.55;;;7.68;;
31384;SDS011;18016;49.788;8.742;2023-02-28T16:08:00;12.63;;;7.57;;
31384;SDS011;18016;49.788;8.742;2023-02-28T16:10:26;10.23;;;7.53;;
31384;SDS011;18016;49.788;8.742;2023-02-28T16:12:53;11.27;;;8.10;;
31384;SDS011;18016;49.788;8.742;2023-02-28T16:15:25;11.25;;;6.88;;
31384;SDS011;18016;49.788;8.742;2023-02-28T16:17:51;11.13;;;8.13;;
31384;SDS011;18016;49.788;8.742;2023-02-28T16:22:42;15.13;;;9.13;;
31384;SDS011;18016;49.788;8.742;2023-02-28T16:25:10;12.90;;;7.13;;
31384;SDS011;18016;49.788;8.742;2023-02-28T16:27:36;10.95;;;7.18;;
31384;SDS011;18016;49.788;8.742;2023-02-28T16:30:03;10.07;;;7.10;;
31384;SDS011;18016;49.788;8.742;2023-02-28T16:32:29;11.50;;;7.13;;
31384;SDS011;18016;49.788;8.742;2023-02-28T16:34:54;10.93;;;6.95;;
31384;SDS011;18016;49.788;8.742;2023-02-28T16:37:19;10.13;;;7.03;;
31384;SDS011;18016;49.788;8.742;2023-02-28T16:39:45;10.90;;;7.60;;
31384;SDS011;18016;49.788;8.742;2023-02-28T16:42:12;12.60;;;7.57;;
31384;SDS011;18016;49.788;8.742;2023-02-28T16:44:39;11.02;;;7.28;;
31384;SDS011;18016;49.788;8.742;2023-02-28T16:47:05;12.30;;;7.82;;
31384;SDS011;18016;49.788;8.742;2023-02-28T16:49:30;11.70;;;7.70;;
31384;SDS011;18016;49.788;8.742;2023-02-28T16:51:55;10.67;;;7.43;;